Welcome, MN (56181)

3:11 AM CDT on August 28, 2015 (GMT -0500)
NuWay Coop - Welcome | | Change Station
CLOSE
Current Station
Personal Weather Station
Location: Welcome, MN
Elevation: 1224 ft
Nearby Weather Stations

Elev 1224 ft 43.67 °N, 94.61 °W | Updated 51 seconds ago

Rain
Rain
63.7 °F
Feels Like 63.7 °F
N
9.0
Wind Variable Wind from SE
Gusts 16.0 mph

Today
High -- | Low -- °F
--% Chance of Precip.
Yesterday
High -- | Low -- °F
Precip. -- in
6:37 AM 8:01 PM
Waxing Gibbous, 97% visible
Pressure 30.00 in
Visibility 10.0 miles
Clouds Scattered Clouds 1000 ft
Mostly Cloudy 8500 ft
Mostly Cloudy 12000 ft
Dew Point 63 °F
Humidity 96%
Rainfall 0.37 in
Snow Depth Not available.
UV 0 out of 12
Pollen 8.00 out of 12
Air Quality Not available.
Flu Activity Not available.
METAR KFRM 280755Z AUTO 16008KT 10SM SCT010 BKN085 BKN120 17/14 A3000 RMK AO1 P0004
Pressure 30.00 in
Visibility 10.0 miles
Clouds Scattered Clouds 1000 ft
Mostly Cloudy 8500 ft
Mostly Cloudy 12000 ft
Dew Point 63 °F
Humidity 96%
Rainfall 0.37 in
Snow Depth Not available.
UV 0 out of 12
Pollen 8.00 out of 12
Air Quality Not available.
Flu Activity Not available.
METAR KFRM 280755Z AUTO 16008KT 10SM SCT010 BKN085 BKN120 17/14 A3000 RMK AO1 P0004

10-Day Weather Forecast

×

Almanac

Astronomy

Aug. 28, 2015 Rise Set
Actual Time
Civil Twilight
Nautical Twilight
Astronomical Twilight
Moon
Length of Visible Light
Length of Day
Tomorrow will be .
, % of the Moon is Illuminated

Today's Extremes

State Highs State Lows

Community

WunderPhotos

Upload Photos

1,850,348 photos uploaded!

WunderBlogs® & News

Nearby

Air Quality

  Air Quality AQ Index Pollutant
Not available.

Snow Depth

Station Depth Elevation

Earthquake Activity

City Distance Mag. Time & Date
Minimum magnitude displayed is 2.5.

Coastal Water Temperatures

Place Temperature

Stations

Nearby Weather Stations

Station Location Temp. Windchill Dew Point Humidity Wind Precip. Elev Updated Type